Time;durP1;ratioP1;P1;durP2;ratioP2;P2;SDS_P1;SDS_P2;PMS_P1;PMS_P2;Temp;Humidity;BMP_temperature;BMP_pressure;BME280_temperature;BME280_humidity;BME280_pressure;Samples;Min_cycle;Max_cycle;Signal;HPM_P1;HPM_P2
2023/06/22 00:01:11;;;;;;;;;19.25;16.75;;;;;25.62;58.46;98955.72;5088718;27;45495;-73
2023/06/22 00:03:36;;;;;;;;;20.25;17.25;;;;;25.60;58.41;98957.69;5087125;27;45483;-74
2023/06/22 00:06:01;;;;;;;;;18.75;16.75;;;;;25.61;58.52;98953.13;5094070;27;45516;-73
2023/06/22 00:08:27;;;;;;;;;25.50;21.00;;;;;25.60;58.37;98949.59;5090879;27;45995;-74
2023/06/22 00:10:52;;;;;;;;;19.00;18.00;;;;;25.60;58.60;98957.69;5091231;27;45396;-73
2023/06/22 00:13:17;;;;;;;;;24.75;21.00;;;;;25.60;58.55;98951.44;5084537;27;45389;-73
2023/06/22 00:15:43;;;;;;;;;19.50;18.75;;;;;25.59;58.44;98952.44;5094834;27;45559;-74
2023/06/22 00:18:10;;;;;;;;;19.25;17.00;;;;;25.56;58.61;98952.75;5087315;27;45569;-73
2023/06/22 00:20:39;;;;;;;;;15.50;14.50;;;;;25.54;58.60;98947.50;5093601;27;45378;-74
2023/06/22 00:23:09;;;;;;;;;17.50;14.25;;;;;25.51;58.74;98955.09;5086392;27;45455;-73
2023/06/22 00:25:37;;;;;;;;;17.25;16.25;;;;;25.47;58.70;98942.94;5093302;27;45342;-74
2023/06/22 00:28:03;;;;;;;;;20.00;18.00;;;;;25.45;58.92;98942.25;5089785;27;46334;-74
2023/06/22 00:30:30;;;;;;;;;23.50;19.25;;;;;25.44;58.95;98933.28;5091150;27;45421;-74
2023/06/22 00:32:56;;;;;;;;;17.25;16.25;;;;;25.42;58.80;98935.31;5091363;27;45410;-73
2023/06/22 00:35:21;;;;;;;;;20.50;18.25;;;;;25.40;58.96;98937.31;5091684;27;45535;-74
2023/06/22 00:37:47;;;;;;;;;21.25;18.50;;;;;25.36;58.77;98928.69;5089963;27;46534;-74
2023/06/22 00:40:13;;;;;;;;;18.75;16.25;;;;;25.33;59.01;98934.41;5093066;27;45421;-74
2023/06/22 00:42:39;;;;;;;;;18.00;16.75;;;;;25.32;59.43;98938.09;5091768;27;45415;-74
2023/06/22 00:45:05;;;;;;;;;15.25;15.25;;;;;25.32;59.21;98932.69;5088056;27;45495;-74
2023/06/22 00:47:32;;;;;;;;;17.00;15.00;;;;;25.31;58.97;98939.09;5090516;27;45585;-74
2023/06/22 00:49:58;;;;;;;;;16.75;15.25;;;;;25.28;58.94;98936.75;5091883;27;45434;-74
2023/06/22 00:52:28;;;;;;;;;19.75;16.00;;;;;25.23;59.17;98930.97;5092309;27;45396;-74
2023/06/22 00:54:55;;;;;;;;;15.00;13.00;;;;;25.20;59.50;98927.75;5089202;27;45546;-74
2023/06/22 00:57:22;;;;;;;;;19.25;18.25;;;;;25.18;59.39;98924.34;5088239;27;45405;-74
2023/06/22 00:59:48;;;;;;;;;18.75;18.00;;;;;25.16;59.46;98926.34;5093227;27;45492;-74
2023/06/22 01:02:14;;;;;;;;;16.75;15.25;;;;;25.13;59.44;98913.22;5092307;27;45581;-74
2023/06/22 01:04:40;;;;;;;;;18.75;16.25;;;;;25.08;59.78;98921.78;5086647;27;45380;-74
2023/06/22 01:07:27;;;;;;;;;20.75;17.25;;;;;25.02;59.54;98914.28;5092691;27;45445;-74
2023/06/22 01:10:21;;;;;;;;;18.25;15.75;;;;;24.97;59.90;98903.13;5091974;27;45412;-74
2023/06/22 01:13:03;;;;;;;;;19.25;17.25;;;;;24.92;60.08;98898.19;5079982;27;45438;-74
2023/06/22 01:15:43;;;;;;;;;21.50;15.75;;;;;24.90;60.22;98897.50;5089995;27;45505;-74
2023/06/22 01:18:10;;;;;;;;;17.25;15.25;;;;;24.88;60.03;98893.25;5089902;27;45561;-74
2023/06/22 01:20:38;;;;;;;;;17.25;16.75;;;;;24.88;60.28;98875.22;5094010;27;45563;-74
2023/06/22 01:23:22;;;;;;;;;22.50;17.75;;;;;24.86;60.36;98876.38;5093228;27;45460;-74
2023/06/22 01:25:59;;;;;;;;;18.75;17.00;;;;;24.82;60.49;98877.69;5089923;27;45893;-74
2023/06/22 01:28:47;;;;;;;;;14.75;14.25;;;;;24.80;60.35;98898.63;5074029;28;45583;-74
2023/06/22 01:31:16;;;;;;;;;20.75;17.00;;;;;24.76;60.10;98894.53;5096451;27;45338;-74
2023/06/22 01:33:45;;;;;;;;;20.00;16.00;;;;;24.71;60.43;98897.69;5093012;27;45334;-74
2023/06/22 01:36:12;;;;;;;;;14.50;14.50;;;;;24.68;60.46;98898.00;5086525;27;45674;-74
2023/06/22 01:38:39;;;;;;;;;18.50;15.25;;;;;24.68;60.53;98901.53;5091802;27;45667;-74
2023/06/22 01:41:04;;;;;;;;;16.50;15.00;;;;;24.68;60.47;98896.16;5093990;27;45396;-74
2023/06/22 01:43:30;;;;;;;;;16.00;16.00;;;;;24.67;60.30;98899.84;5091238;27;45484;-74
2023/06/22 01:45:57;;;;;;;;;15.50;13.25;;;;;24.67;60.29;98896.31;5096854;27;45318;-73
2023/06/22 01:48:23;;;;;;;;;16.50;16.25;;;;;24.67;60.71;98885.50;5094741;27;46361;-73
2023/06/22 01:50:49;;;;;;;;;17.50;16.50;;;;;24.66;60.50;98884.66;5090960;27;45523;-73
2023/06/22 01:53:14;;;;;;;;;16.00;15.50;;;;;24.65;60.62;98893.75;5090131;27;45548;-74
2023/06/22 01:55:40;;;;;;;;;18.00;16.75;;;;;24.65;60.32;98895.59;5093538;27;45392;-73
2023/06/22 01:58:05;;;;;;;;;16.00;13.00;;;;;24.64;60.38;98894.75;5089973;27;45564;-73
2023/06/22 02:00:38;;;;;;;;;15.25;14.25;;;;;24.63;60.28;98908.41;5096585;27;45483;-74
2023/06/22 02:03:31;;;;;;;;;18.50;16.00;;;;;24.62;60.26;98904.03;5089030;27;45512;-73
2023/06/22 02:06:04;;;;;;;;;13.25;13.25;;;;;24.61;60.47;98911.28;5093362;27;45552;-74
2023/06/22 02:08:35;;;;;;;;;16.25;15.00;;;;;24.59;60.47;98899.78;5092344;27;45573;-74
2023/06/22 02:11:03;;;;;;;;;16.60;15.60;;;;;24.58;60.36;98903.50;5096928;27;45359;-73
2023/06/22 02:13:30;;;;;;;;;15.75;15.50;;;;;24.56;60.65;98910.03;5088664;27;45339;-74
2023/06/22 02:15:56;;;;;;;;;20.25;18.00;;;;;24.50;60.85;98899.84;5095536;27;45533;-74
2023/06/22 02:18:21;;;;;;;;;20.50;18.00;;;;;24.48;60.81;98905.41;5092212;27;46234;-73
2023/06/22 02:20:47;;;;;;;;;17.50;17.50;;;;;24.46;60.40;98893.97;5090276;27;45479;-74
2023/06/22 02:23:12;;;;;;;;;17.50;17.25;;;;;24.44;60.54;98890.56;5087758;27;45383;-73
2023/06/22 02:25:38;;;;;;;;;16.75;15.50;;;;;24.42;60.72;98905.19;5082310;27;45542;-73
2023/06/22 02:28:04;;;;;;;;;17.50;17.25;;;;;24.38;60.83;98909.19;5084620;27;47218;-73
2023/06/22 02:30:30;;;;;;;;;15.60;15.00;;;;;24.35;61.05;98910.34;5093710;27;45514;-73
2023/06/22 02:32:59;;;;;;;;;16.50;16.00;;;;;24.35;61.12;98902.25;5093544;27;45380;-73
2023/06/22 02:35:26;;;;;;;;;13.50;10.25;;;;;24.37;60.79;98894.03;5095261;27;45445;-73
2023/06/22 02:37:52;;;;;;;;;20.25;16.75;;;;;24.33;60.99;98899.72;5076092;27;47264;-73
2023/06/22 02:40:17;;;;;;;;;14.25;13.00;;;;;24.30;61.08;98891.94;5095877;27;45338;-73
2023/06/22 02:42:43;;;;;;;;;13.00;13.00;;;;;24.31;60.96;98896.31;5094778;27;45448;-74
2023/06/22 02:45:08;;;;;;;;;19.25;18.25;;;;;24.31;60.76;98901.72;5094884;27;45504;-73
2023/06/22 02:47:34;;;;;;;;;18.25;17.25;;;;;24.30;60.82;98899.16;5094813;27;45563;-74
2023/06/22 02:50:00;;;;;;;;;19.75;16.50;;;;;24.26;60.98;98908.56;5096138;27;45365;-73
2023/06/22 02:52:25;;;;;;;;;17.50;15.00;;;;;24.23;61.19;98914.22;5092892;27;45440;-73
2023/06/22 02:54:51;;;;;;;;;18.00;16.00;;;;;24.18;61.30;98908.44;5086089;27;45489;-73
2023/06/22 02:57:16;;;;;;;;;15.75;14.75;;;;;24.14;60.91;98907.91;5075931;27;48154;-73
2023/06/22 02:59:42;;;;;;;;;15.50;14.75;;;;;24.12;61.73;98906.38;5091114;27;45390;-73
2023/06/22 03:02:08;;;;;;;;;17.50;15.75;;;;;24.09;61.47;98894.06;5094139;27;45545;-73
2023/06/22 03:04:34;;;;;;;;;14.25;13.00;;;;;24.08;61.76;98911.22;5082280;27;46292;-73
2023/06/22 03:07:01;;;;;;;;;16.75;14.00;;;;;24.06;62.13;98926.69;5092376;27;45451;-74
2023/06/22 03:09:30;;;;;;;;;19.40;15.60;;;;;24.06;61.74;98928.53;5084003;27;45405;-73
2023/06/22 03:11:55;;;;;;;;;16.75;16.25;;;;;24.05;61.76;98926.84;5092480;27;45428;-73
2023/06/22 03:14:21;;;;;;;;;17.75;16.75;;;;;23.92;61.54;98925.34;5086427;27;45581;-72
2023/06/22 03:16:46;;;;;;;;;13.00;12.75;;;;;23.82;62.19;98926.38;5092709;27;46105;-73
2023/06/22 03:19:12;;;;;;;;;14.75;13.75;;;;;23.70;61.51;98931.13;5086260;27;45449;-73
2023/06/22 03:21:38;;;;;;;;;15.75;13.50;;;;;23.67;62.15;98926.03;5092970;27;45398;-73
2023/06/22 03:24:05;;;;;;;;;16.50;13.75;;;;;23.69;61.90;98915.13;5083852;27;45534;-73
2023/06/22 03:26:30;;;;;;;;;16.00;16.00;;;;;23.69;61.85;98904.34;5092263;27;46423;-73
2023/06/22 03:28:56;;;;;;;;;14.50;14.50;;;;;23.63;62.32;98921.94;5090856;27;45734;-73
2023/06/22 03:31:22;;;;;;;;;15.50;13.75;;;;;23.62;62.68;98931.03;5093039;27;45991;-73
2023/06/22 03:33:49;;;;;;;;;15.50;14.50;;;;;23.60;62.71;98928.50;5084107;27;45540;-73
2023/06/22 03:36:18;;;;;;;;;10.50;8.25;;;;;23.58;62.67;98951.16;5093109;27;46214;-73
2023/06/22 03:38:44;;;;;;;;;15.60;14.60;;;;;23.56;62.64;98963.91;5088898;27;45372;-73
2023/06/22 03:41:10;;;;;;;;;13.75;13.75;;;;;23.56;62.00;98985.44;5094820;27;45326;-74
2023/06/22 03:43:35;;;;;;;;;13.25;13.25;;;;;23.51;61.65;99020.88;5086932;27;45737;-74
2023/06/22 03:46:00;;;;;;;;;13.00;12.50;;;;;23.42;62.56;99051.31;5093147;27;45384;-73
2023/06/22 03:48:26;;;;;;;;;17.75;17.25;;;;;23.45;63.17;99077.94;5086053;27;45445;-74
2023/06/22 03:50:51;;;;;;;;;14.00;10.75;;;;;23.50;62.92;99064.03;5090503;27;45408;-73
2023/06/22 03:53:17;;;;;;;;;16.75;15.25;;;;;23.49;63.09;99076.63;5088485;27;45491;-73
2023/06/22 03:55:50;;;;;;;;;20.50;18.00;;;;;23.46;62.91;99076.91;5091386;27;46230;-73
2023/06/22 03:58:16;;;;;;;;;19.00;18.00;;;;;23.49;62.66;99082.03;5081451;27;45423;-73
2023/06/22 04:00:42;;;;;;;;;15.50;13.25;;;;;23.52;63.13;99094.38;5094042;27;45340;-73
2023/06/22 04:03:07;;;;;;;;;16.00;16.00;;;;;23.59;63.26;99103.59;5086306;27;45537;-74
2023/06/22 04:05:33;;;;;;;;;22.75;18.50;;;;;23.66;63.25;99155.84;5085889;27;46344;-73
2023/06/22 04:07:58;;;;;;;;;17.50;15.00;;;;;23.73;62.76;99148.91;5071176;28;46461;-73
2023/06/22 04:10:24;;;;;;;;;19.00;18.25;;;;;23.79;62.60;99148.34;5086002;27;45680;-73
2023/06/22 04:12:49;;;;;;;;;19.00;15.75;;;;;23.85;62.72;99168.44;5075553;27;45748;-73
2023/06/22 04:15:14;;;;;;;;;15.50;14.50;;;;;23.88;62.80;99195.94;5087863;27;46444;-73
2023/06/22 04:17:40;;;;;;;;;19.00;18.00;;;;;23.89;62.31;99175.22;5090263;27;45518;-73
2023/06/22 04:20:06;;;;;;;;;16.00;13.50;;;;;23.92;62.71;99199.19;5088544;27;45826;-73
2023/06/22 04:22:31;;;;;;;;;16.75;15.25;;;;;23.90;62.58;99193.09;5091019;27;45452;-73
2023/06/22 04:24:57;;;;;;;;;13.50;12.25;;;;;23.91;62.43;99202.88;5091807;27;45433;-73
2023/06/22 04:27:23;;;;;;;;;19.00;15.75;;;;;23.87;62.53;99218.47;5092054;27;45442;-73
2023/06/22 04:29:48;;;;;;;;;23.00;16.00;;;;;23.85;63.38;99216.91;5097264;27;45427;-73
2023/06/22 04:32:17;;;;;;;;;20.00;18.00;;;;;23.85;63.87;99238.44;5092383;27;45334;-74
2023/06/22 04:34:42;;;;;;;;;20.25;19.00;;;;;23.86;63.71;99230.22;5081875;27;46350;-74
2023/06/22 04:37:08;;;;;;;;;9.00;9.00;;;;;23.88;63.99;99220.16;5092136;27;45573;-74
2023/06/22 04:39:33;;;;;;;;;20.50;15.50;;;;;23.88;63.66;99217.47;5086047;27;45529;-74
2023/06/22 04:42:02;;;;;;;;;21.00;17.00;;;;;23.90;63.97;99214.63;5096355;27;45402;-73
2023/06/22 04:44:27;;;;;;;;;19.50;16.75;;;;;23.92;64.93;99224.28;5089124;27;47131;-73
2023/06/22 04:47:03;;;;;;;;;22.75;17.25;;;;;23.98;64.68;99215.59;5078963;27;45547;-73
2023/06/22 04:49:33;;;;;;;;;19.50;16.00;;;;;24.00;64.13;99137.34;5089798;27;45524;-73
2023/06/22 04:52:03;;;;;;;;;20.50;17.25;;;;;24.00;64.55;99103.19;5096868;27;45620;-74
2023/06/22 04:54:28;;;;;;;;;19.00;19.00;;;;;24.00;64.81;99078.09;5086952;27;45710;-74
2023/06/22 04:56:56;;;;;;;;;19.25;18.25;;;;;24.01;64.92;99077.09;5092985;27;45353;-73
2023/06/22 04:59:28;;;;;;;;;18.00;16.00;;;;;24.03;64.65;99112.81;5092235;27;45400;-73
2023/06/22 05:01:58;;;;;;;;;18.50;18.25;;;;;24.10;64.31;99118.47;5096803;27;45308;-74
2023/06/22 05:04:24;;;;;;;;;16.50;15.25;;;;;24.12;64.38;99120.03;5095604;27;46269;-74
2023/06/22 05:06:51;;;;;;;;;21.25;20.00;;;;;24.16;64.44;99109.78;5098033;27;45565;-70
2023/06/22 05:09:17;;;;;;;;;21.25;19.00;;;;;24.16;64.17;99062.16;5090983;27;45526;-74
2023/06/22 05:11:43;;;;;;;;;19.50;16.50;;;;;24.17;64.77;99074.63;5095072;27;45471;-73
2023/06/22 05:14:08;;;;;;;;;18.25;15.75;;;;;24.18;64.69;99095.19;5088468;27;45916;-74
2023/06/22 05:16:34;;;;;;;;;21.25;18.25;;;;;24.20;64.86;99085.13;5074852;27;45338;-73
2023/06/22 05:18:59;;;;;;;;;19.50;17.50;;;;;24.28;64.79;99089.81;5087462;27;45523;-74
2023/06/22 05:21:27;;;;;;;;;18.75;14.75;;;;;24.36;64.31;99092.59;5096854;27;45332;-74
2023/06/22 05:23:53;;;;;;;;;25.25;19.25;;;;;24.43;64.18;99099.09;5089168;27;45510;-73
2023/06/22 05:26:22;;;;;;;;;19.25;17.50;;;;;24.47;63.61;99081.59;5091658;27;45404;-74
2023/06/22 05:28:48;;;;;;;;;24.75;21.50;;;;;24.52;63.69;99094.63;5092980;27;45512;-74
2023/06/22 05:31:17;;;;;;;;;19.25;17.00;;;;;24.52;63.51;99095.47;5096507;27;45404;-74
2023/06/22 05:33:43;;;;;;;;;18.00;15.75;;;;;24.56;63.33;99088.78;5089584;27;45430;-74
2023/06/22 05:36:10;;;;;;;;;18.25;17.50;;;;;24.55;63.19;99100.56;5093273;27;45467;-75
2023/06/22 05:38:36;;;;;;;;;19.75;18.00;;;;;24.54;63.05;99106.97;5088637;27;45367;-74
2023/06/22 05:41:01;;;;;;;;;24.00;17.00;;;;;24.52;63.02;99086.53;5092476;27;45519;-74
2023/06/22 05:43:27;;;;;;;;;12.75;11.00;;;;;24.47;63.24;99096.91;5089840;27;46303;-74
2023/06/22 05:45:52;;;;;;;;;23.75;21.50;;;;;24.46;63.28;99109.56;5095068;27;45417;-74
2023/06/22 05:48:17;;;;;;;;;20.50;18.25;;;;;24.46;63.29;99114.13;5090272;27;45369;-74
2023/06/22 05:50:43;;;;;;;;;14.50;13.50;;;;;24.45;63.36;99112.41;5092245;27;45468;-74
2023/06/22 05:53:08;;;;;;;;;16.00;15.75;;;;;24.44;63.20;99092.69;5090409;27;46447;-74
2023/06/22 05:55:34;;;;;;;;;16.50;16.50;;;;;24.45;63.20;99099.78;5095025;27;45420;-63
2023/06/22 05:57:59;;;;;;;;;17.25;16.50;;;;;24.43;63.25;99088.31;5089913;27;45461;-68
2023/06/22 06:00:25;;;;;;;;;18.25;17.00;;;;;24.43;62.77;99074.84;5096295;27;45475;-68
2023/06/22 06:02:50;;;;;;;;;16.25;13.50;;;;;24.46;62.23;99068.28;5090431;27;45940;-68
2023/06/22 06:05:16;;;;;;;;;16.00;15.50;;;;;24.50;61.65;99066.97;5094975;27;45394;-68
2023/06/22 06:07:46;;;;;;;;;18.75;15.50;;;;;24.54;61.85;99090.78;5090754;27;45398;-68
2023/06/22 06:10:12;;;;;;;;;17.00;16.75;;;;;24.61;61.90;99078.41;5091175;27;45432;-68
2023/06/22 06:12:37;;;;;;;;;21.75;15.00;;;;;24.69;62.44;99069.56;5091298;27;46084;-70
2023/06/22 06:15:04;;;;;;;;;0.00;0.00;;;;;24.78;62.44;99065.97;5087516;27;45436;-71
2023/06/22 06:17:29;;;;;;;;;20.00;16.75;;;;;24.79;63.04;99039.84;5074437;27;45467;-70
2023/06/22 06:19:54;;;;;;;;;18.50;16.00;;;;;24.81;62.57;99035.97;5086299;27;45506;-70
2023/06/22 06:22:21;;;;;;;;;15.25;14.50;;;;;24.80;62.73;99034.25;5091490;27;46436;-69
2023/06/22 06:24:48;;;;;;;;;23.00;19.25;;;;;24.83;62.58;99049.28;5088022;27;45417;-70
2023/06/22 06:27:13;;;;;;;;;19.25;16.75;;;;;24.85;62.31;99040.06;5093400;27;45535;-69
2023/06/22 06:29:39;;;;;;;;;20.25;18.50;;;;;24.89;62.21;99040.59;5093210;27;45480;-74
2023/06/22 06:32:04;;;;;;;;;18.25;16.25;;;;;24.94;61.93;99046.41;5093640;27;46433;-67
2023/06/22 06:34:30;;;;;;;;;19.50;15.25;;;;;24.99;61.98;99053.03;5084048;27;45535;-66
2023/06/22 06:36:55;;;;;;;;;22.25;18.00;;;;;25.05;61.93;99062.38;5094637;27;45429;-67
2023/06/22 06:39:21;;;;;;;;;25.25;18.75;;;;;25.10;62.24;99061.91;5076721;27;45622;-68
2023/06/22 06:41:46;;;;;;;;;20.75;15.50;;;;;25.12;61.73;99058.06;5062479;28;45473;-67
2023/06/22 06:44:12;;;;;;;;;19.25;17.75;;;;;25.20;61.49;99043.78;5080201;27;45409;-68
2023/06/22 06:46:37;;;;;;;;;21.50;17.50;;;;;25.25;61.22;99052.25;5094774;27;45603;-67
2023/06/22 06:49:03;;;;;;;;;15.00;15.00;;;;;25.33;61.09;99072.03;5069763;27;45611;-67
2023/06/22 06:51:28;;;;;;;;;20.75;17.75;;;;;25.38;61.17;99067.03;5093515;27;45499;-67
2023/06/22 06:53:54;;;;;;;;;22.50;18.25;;;;;25.42;60.82;99085.63;5085684;27;45411;-67
2023/06/22 06:56:20;;;;;;;;;17.00;16.00;;;;;25.40;60.77;99077.69;5085544;27;45369;-67
2023/06/22 06:58:45;;;;;;;;;22.50;18.25;;;;;25.38;60.64;99091.31;5087513;27;45460;-67
2023/06/22 07:01:12;;;;;;;;;16.75;16.50;;;;;25.39;60.86;99065.19;5093164;27;46042;-67
2023/06/22 07:03:37;;;;;;;;;16.20;15.60;;;;;25.39;60.62;99049.00;5068162;27;45623;-67
2023/06/22 07:06:03;;;;;;;;;21.75;20.25;;;;;25.35;61.14;99026.84;5075560;27;45413;-67
2023/06/22 07:08:28;;;;;;;;;21.25;18.75;;;;;25.35;60.93;99009.81;5069031;27;45509;-67
2023/06/22 07:10:54;;;;;;;;;21.00;16.50;;;;;25.35;60.53;99023.31;5093546;27;45813;-67
2023/06/22 07:13:19;;;;;;;;;20.75;14.75;;;;;25.35;60.71;99048.44;5087653;27;45420;-67
2023/06/22 07:15:45;;;;;;;;;17.75;15.00;;;;;25.36;60.37;99054.69;5094445;27;45507;-67
2023/06/22 07:18:10;;;;;;;;;27.75;22.75;;;;;25.37;59.58;99057.25;5086261;27;45539;-67
2023/06/22 07:20:36;;;;;;;;;17.25;14.50;;;;;25.39;59.66;99065.19;5082615;27;46534;-67
2023/06/22 07:23:01;;;;;;;;;14.50;11.00;;;;;25.37;57.56;99040.19;5088210;27;45467;-68
2023/06/22 07:25:27;;;;;;;;;19.00;16.75;;;;;25.41;59.09;99054.22;5086725;27;45608;-68
2023/06/22 07:28:01;;;;;;;;;16.50;14.50;;;;;25.43;59.12;99049.53;5088812;27;45472;-68
2023/06/22 07:30:27;;;;;;;;;16.50;13.25;;;;;25.43;58.38;99071.97;5093817;27;46598;-68
2023/06/22 07:32:52;;;;;;;;;12.75;10.50;;;;;25.44;57.91;99107.91;5091040;27;45433;-68
2023/06/22 07:35:17;;;;;;;;;14.50;10.50;;;;;25.51;57.75;99106.25;5086195;27;45480;-68
2023/06/22 07:37:43;;;;;;;;;13.00;11.50;;;;;25.53;56.19;99082.66;5090142;27;45479;-68
2023/06/22 07:40:09;;;;;;;;;12.75;11.50;;;;;25.57;55.49;99038.16;5082849;27;47053;-68
2023/06/22 07:42:35;;;;;;;;;11.80;8.00;;;;;25.62;53.83;99006.16;5089618;27;45463;-68
2023/06/22 07:45:02;;;;;;;;;8.25;8.25;;;;;25.67;54.72;99030.81;5075761;27;45386;-68
2023/06/22 07:47:28;;;;;;;;;13.75;9.25;;;;;25.69;55.81;99043.16;5088604;27;45399;-67
2023/06/22 07:49:57;;;;;;;;;9.00;7.25;;;;;25.72;54.22;99058.19;5075456;27;46109;-67
2023/06/22 07:52:22;;;;;;;;;8.00;6.00;;;;;25.74;53.93;99099.41;5087378;27;45518;-67
2023/06/22 07:54:47;;;;;;;;;12.75;7.25;;;;;25.78;52.74;99116.13;5081811;27;45952;-67
2023/06/22 07:57:13;;;;;;;;;10.00;6.50;;;;;25.82;52.42;99109.38;5086427;27;45525;-67
2023/06/22 07:59:38;;;;;;;;;7.75;6.25;;;;;25.87;52.97;99078.22;5084013;27;46148;-67
2023/06/22 08:02:05;;;;;;;;;10.00;7.00;;;;;25.90;52.75;99055.44;5107806;27;45511;-67
2023/06/22 08:04:34;;;;;;;;;9.50;8.00;;;;;25.89;53.00;99062.69;5100061;27;45433;-67
2023/06/22 08:07:00;;;;;;;;;6.50;3.50;;;;;25.91;53.27;99087.69;5090746;27;45543;-66
2023/06/22 08:09:27;;;;;;;;;8.25;7.00;;;;;25.93;52.75;99095.63;5070569;27;47349;-68
2023/06/22 08:11:53;;;;;;;;;7.00;6.20;;;;;25.94;53.25;99098.19;5093687;27;45500;-67
2023/06/22 08:14:19;;;;;;;;;7.80;7.40;;;;;25.92;53.15;99078.59;5089983;27;45444;-67
2023/06/22 08:16:44;;;;;;;;;7.00;6.75;;;;;25.88;52.79;99081.75;5094171;27;45448;-68
2023/06/22 08:19:10;;;;;;;;;6.50;6.00;;;;;25.87;53.12;99077.34;5086602;27;46339;-66
2023/06/22 08:21:35;;;;;;;;;10.50;7.75;;;;;25.85;51.71;99079.38;5091174;27;45423;-67
2023/06/22 08:24:04;;;;;;;;;4.75;4.00;;;;;25.86;50.67;99090.00;5084134;27;45394;-68
2023/06/22 08:26:29;;;;;;;;;11.75;9.25;;;;;25.90;51.86;99096.81;5090566;27;45522;-68
2023/06/22 08:28:55;;;;;;;;;9.25;7.50;;;;;25.90;51.81;99107.59;5082620;27;45516;-68
2023/06/22 08:31:20;;;;;;;;;7.75;6.50;;;;;25.91;53.08;99116.56;5092404;27;45455;-67
2023/06/22 08:33:49;;;;;;;;;6.50;6.50;;;;;25.92;53.63;99119.09;5091379;27;45624;-68
2023/06/22 08:36:14;;;;;;;;;8.75;7.00;;;;;25.94;53.80;99121.66;5093941;27;45599;-66
2023/06/22 08:38:39;;;;;;;;;9.50;5.75;;;;;25.95;53.95;99112.53;5085602;27;45922;-68
2023/06/22 08:41:05;;;;;;;;;4.00;2.75;;;;;25.94;51.74;99100.88;5090550;27;45435;-68
2023/06/22 08:43:30;;;;;;;;;8.50;7.75;;;;;25.97;50.76;99094.31;5085903;27;45411;-68
2023/06/22 08:45:56;;;;;;;;;6.50;5.75;;;;;26.03;50.96;99104.47;5089932;27;45479;-68
2023/06/22 08:48:21;;;;;;;;;7.00;4.25;;;;;26.08;50.52;99130.00;5088158;27;45612;-66
2023/06/22 08:50:46;;;;;;;;;9.25;7.25;;;;;26.13;51.04;99134.09;5089120;27;45329;-66
2023/06/22 08:53:12;;;;;;;;;10.00;7.25;;;;;26.15;51.48;99121.25;5083696;27;45402;-66
2023/06/22 08:55:38;;;;;;;;;8.50;5.25;;;;;26.15;51.79;99105.03;5079732;27;45486;-66
2023/06/22 08:58:03;;;;;;;;;6.00;4.00;;;;;26.12;49.87;99116.19;5085416;27;46250;-67
2023/06/22 09:00:32;;;;;;;;;9.00;5.75;;;;;26.10;51.91;99118.19;5084814;27;45424;-67
2023/06/22 09:02:58;;;;;;;;;6.20;5.00;;;;;26.08;50.94;99129.16;5068932;27;45385;-68
2023/06/22 09:05:27;;;;;;;;;8.40;3.60;;;;;26.08;50.24;99135.41;5090896;27;45463;-69
2023/06/22 09:07:54;;;;;;;;;9.40;4.60;;;;;26.05;51.12;99138.44;5088040;27;46348;-67
2023/06/22 09:10:20;;;;;;;;;5.80;3.40;;;;;26.02;51.86;99143.31;5091336;27;45559;-66
2023/06/22 09:12:45;;;;;;;;;5.50;5.00;;;;;25.97;51.96;99134.84;5090313;27;45430;-67
2023/06/22 09:15:11;;;;;;;;;5.75;4.25;;;;;25.90;50.73;99147.28;5073661;27;45499;-66
2023/06/22 09:17:36;;;;;;;;;5.75;4.50;;;;;25.90;51.66;99148.13;5088392;27;45536;-67
2023/06/22 09:20:05;;;;;;;;;7.50;6.25;;;;;25.90;52.48;99156.22;5092659;27;45429;-67
2023/06/22 09:22:31;;;;;;;;;8.80;5.00;;;;;25.89;51.75;99140.19;5090187;27;45526;-68
2023/06/22 09:24:57;;;;;;;;;9.00;7.50;;;;;25.89;52.07;99130.22;5085490;27;45595;-67
2023/06/22 09:27:23;;;;;;;;;6.75;5.50;;;;;25.94;52.48;99117.09;5108747;27;46401;-67
2023/06/22 09:29:49;;;;;;;;;7.50;5.75;;;;;25.98;52.21;99121.16;5093652;27;45480;-68
2023/06/22 09:32:15;;;;;;;;;3.00;0.80;;;;;26.02;50.72;99118.97;5093369;27;45526;-67
2023/06/22 09:34:40;;;;;;;;;7.75;6.00;;;;;26.09;52.06;99128.16;5086600;27;45490;-67
2023/06/22 09:37:06;;;;;;;;;8.75;5.50;;;;;26.20;52.69;99135.13;5094530;27;45989;-67
2023/06/22 09:39:31;;;;;;;;;9.25;7.00;;;;;26.32;54.11;99150.94;5087204;27;45413;-67
2023/06/22 09:41:59;;;;;;;;;9.00;8.00;;;;;26.44;54.39;99147.97;5095169;27;45412;-68
2023/06/22 09:44:25;;;;;;;;;8.25;8.25;;;;;26.55;53.21;99113.38;5089128;27;45461;-68
2023/06/22 09:46:50;;;;;;;;;9.50;8.00;;;;;26.72;51.89;99112.44;5096093;27;45774;-67
2023/06/22 09:49:16;;;;;;;;;7.75;7.00;;;;;27.00;51.24;99115.72;5084870;27;45599;-67
2023/06/22 09:51:41;;;;;;;;;9.00;7.25;;;;;27.27;51.25;99144.38;5094706;27;45610;-66
2023/06/22 09:54:06;;;;;;;;;7.25;6.50;;;;;27.54;51.49;99164.03;5071910;27;45416;-67
2023/06/22 09:56:32;;;;;;;;;8.25;6.00;;;;;27.73;50.87;99161.88;5093419;27;45445;-67
2023/06/22 09:58:57;;;;;;;;;7.00;7.00;;;;;27.89;50.92;99163.72;5088447;27;45372;-67
2023/06/22 10:01:23;;;;;;;;;7.75;7.25;;;;;27.96;50.63;99145.78;5095542;27;45340;-67
2023/06/22 10:03:49;;;;;;;;;11.75;10.00;;;;;28.00;51.17;99138.13;5090581;27;45516;-67
2023/06/22 10:06:14;;;;;;;;;14.50;10.75;;;;;27.99;50.73;99133.72;5095218;27;45568;-68
2023/06/22 10:08:40;;;;;;;;;12.75;11.00;;;;;28.00;51.18;99116.44;5085904;27;45487;-68
2023/06/22 10:11:06;;;;;;;;;9.25;9.25;;;;;28.00;50.13;99082.06;5094896;27;45463;-66
2023/06/22 10:13:31;;;;;;;;;9.25;7.75;;;;;28.03;49.93;99091.72;5089435;27;45408;-66
2023/06/22 10:15:57;;;;;;;;;8.75;8.75;;;;;28.06;50.21;99118.47;5095061;27;45395;-67
2023/06/22 10:18:22;;;;;;;;;12.75;11.50;;;;;28.10;50.04;99146.94;5087622;27;45431;-67
2023/06/22 10:20:52;;;;;;;;;12.75;10.25;;;;;28.11;49.68;99116.94;5072034;27;45420;-67
2023/06/22 10:23:18;;;;;;;;;16.25;13.00;;;;;28.12;49.82;99088.81;5091734;27;45323;-67
2023/06/22 10:25:43;;;;;;;;;14.25;12.25;;;;;28.12;49.67;99112.38;5083623;27;46061;-67
2023/06/22 10:28:09;;;;;;;;;9.75;8.75;;;;;28.11;49.59;99103.38;5091147;27;45623;-67
2023/06/22 10:30:34;;;;;;;;;12.50;10.50;;;;;28.08;49.16;99100.19;5093516;27;45471;-68
2023/06/22 10:33:00;;;;;;;;;9.25;8.75;;;;;28.08;49.62;99068.50;5090561;27;45458;-67
2023/06/22 10:35:25;;;;;;;;;7.50;6.75;;;;;28.14;49.16;99054.25;5094071;27;46402;-67
2023/06/22 10:37:50;;;;;;;;;7.25;7.00;;;;;28.17;49.32;99050.31;5090566;27;45475;-68
2023/06/22 10:40:18;;;;;;;;;12.00;9.25;;;;;28.22;49.49;99080.50;5089593;27;45420;-68
2023/06/22 10:42:44;;;;;;;;;11.00;9.50;;;;;28.27;50.66;99094.38;5092503;27;45424;-68
2023/06/22 10:45:09;;;;;;;;;10.50;9.75;;;;;28.34;50.89;99110.78;5087260;27;46533;-68
2023/06/22 10:47:35;;;;;;;;;10.00;7.25;;;;;28.37;52.05;99075.19;5092249;27;45457;-68
2023/06/22 10:50:01;;;;;;;;;7.60;6.40;;;;;28.35;50.27;99025.69;5083488;27;45403;-68
2023/06/22 10:52:26;;;;;;;;;8.75;8.75;;;;;28.25;50.51;99017.78;5093765;27;45438;-68
2023/06/22 10:54:52;;;;;;;;;12.00;9.00;;;;;28.19;50.65;99058.28;5077989;27;46411;-68
2023/06/22 10:57:18;;;;;;;;;8.75;7.00;;;;;28.22;49.19;99064.22;5090244;27;45423;-68
2023/06/22 10:59:43;;;;;;;;;4.50;4.00;;;;;28.27;49.29;99053.72;5081211;27;45537;-68
2023/06/22 11:02:08;;;;;;;;;9.00;6.00;;;;;28.34;48.54;99049.25;5091005;27;45475;-68
2023/06/22 11:04:34;;;;;;;;;8.25;8.00;;;;;28.47;47.75;99038.72;5083473;27;45522;-68
2023/06/22 11:06:59;;;;;;;;;6.75;5.75;;;;;28.56;45.26;99036.78;5081781;27;45639;-68
2023/06/22 11:09:25;;;;;;;;;5.50;4.25;;;;;28.57;43.53;99022.19;5086683;27;45415;-68
2023/06/22 11:11:54;;;;;;;;;6.00;4.25;;;;;28.54;45.06;99017.13;5088071;27;45522;-68
2023/06/22 11:14:20;;;;;;;;;6.80;3.80;;;;;28.56;44.49;99001.53;5085192;27;45667;-68
2023/06/22 11:16:46;;;;;;;;;10.00;8.25;;;;;28.57;44.38;98996.94;5092094;27;45440;-67
2023/06/22 11:19:11;;;;;;;;;8.80;5.80;;;;;28.51;44.52;99000.34;5088036;27;45259;-67